Time;durP1;ratioP1;P1;durP2;ratioP2;P2;SDS_P1;SDS_P2;PMS_P1;PMS_P2;Temp;Humidity;BMP_temperature;BMP_pressure;BME280_temperature;BME280_humidity;BME280_pressure;Samples;Min_cycle;Max_cycle;Signal;HPM_P1;HPM_P2
2023/06/10 00:00:14;;;;;;;7.90;6.00;;;;;;;22.54;51.17;101299.78;5029209;28;20033;-81
2023/06/10 00:02:40;;;;;;;7.00;5.78;;;;;;;22.50;51.04;101290.38;5032167;28;20547;-81
2023/06/10 00:05:07;;;;;;;12.43;6.20;;;;;;;22.50;50.99;101295.78;5031715;28;20033;-81
2023/06/10 00:07:37;;;;;;;8.40;5.82;;;;;;;22.49;51.18;101294.09;5027922;28;20087;-81
2023/06/10 00:10:05;;;;;;;9.93;6.20;;;;;;;22.46;51.01;101295.28;5029972;28;20085;-81
2023/06/10 00:12:36;;;;;;;6.55;5.60;;;;;;;22.45;51.23;101298.19;5031825;28;20025;-81
2023/06/10 00:15:03;;;;;;;10.48;6.15;;;;;;;22.41;51.06;101291.47;5030253;28;20048;-80
2023/06/10 00:17:28;;;;;;;7.07;5.60;;;;;;;22.39;51.23;101305.19;5030829;28;20045;-80
2023/06/10 00:19:55;;;;;;;6.20;5.53;;;;;;;22.39;51.28;101299.78;5034837;28;20030;-80
2023/06/10 00:22:22;;;;;;;11.50;5.63;;;;;;;22.35;51.22;101299.31;5030856;28;20049;-81
2023/06/10 00:24:47;;;;;;;8.63;6.15;;;;;;;22.34;51.46;101297.59;5031577;28;20719;-81
2023/06/10 00:27:12;;;;;;;10.45;6.00;;;;;;;22.30;51.63;101295.44;5030002;28;20041;-81
2023/06/10 00:29:38;;;;;;;9.33;5.70;;;;;;;22.25;51.43;101298.69;5028029;28;20099;-81
2023/06/10 00:32:04;;;;;;;8.02;5.85;;;;;;;22.22;51.76;101299.06;5032889;28;20762;-80
2023/06/10 00:34:29;;;;;;;8.88;6.22;;;;;;;22.20;51.74;101303.81;5032098;28;20032;-80
2023/06/10 00:36:55;;;;;;;8.38;5.70;;;;;;;22.17;51.60;101302.31;5028605;28;20032;-80
2023/06/10 00:39:20;;;;;;;9.30;6.37;;;;;;;22.16;51.85;101306.03;5033053;28;20033;-80
2023/06/10 00:41:45;;;;;;;8.90;5.72;;;;;;;22.13;52.30;101302.84;5029777;28;20359;-80
2023/06/10 00:44:11;;;;;;;7.15;5.43;;;;;;;22.12;52.76;101307.44;5032471;28;20387;-81
2023/06/10 00:46:37;;;;;;;5.82;5.22;;;;;;;22.11;52.42;101304.91;5032772;28;20463;-81
2023/06/10 00:49:04;;;;;;;7.68;5.70;;;;;;;22.04;52.54;101299.38;5031845;28;20076;-80
2023/06/10 00:51:29;;;;;;;7.93;6.13;;;;;;;21.99;52.93;101299.09;5029735;28;20487;-80
2023/06/10 00:53:55;;;;;;;9.45;5.72;;;;;;;21.96;53.04;101304.84;5029334;28;20078;-80
2023/06/10 00:56:21;;;;;;;7.95;5.65;;;;;;;21.92;52.86;101306.25;5027516;28;20024;-81
2023/06/10 00:58:47;;;;;;;9.02;6.35;;;;;;;21.87;53.19;101305.97;5027776;28;20479;-81
2023/06/10 01:01:14;;;;;;;9.15;6.80;;;;;;;21.81;53.42;101305.63;5027182;28;20111;-80
2023/06/10 01:03:39;;;;;;;8.68;5.80;;;;;;;21.78;53.15;101299.75;5025318;28;20029;-80
2023/06/10 01:06:17;;;;;;;8.52;6.10;;;;;;;21.75;53.28;101302.81;5026672;28;20029;-81
2023/06/10 01:08:54;;;;;;;8.70;6.63;;;;;;;21.66;53.51;101296.63;5030068;28;20041;-81
2023/06/10 01:11:24;;;;;;;7.25;6.55;;;;;;;21.61;53.71;101299.03;5025685;28;20021;-80
2023/06/10 01:13:51;;;;;;;10.07;5.97;;;;;;;21.59;53.67;101299.22;5027249;28;20086;-81
2023/06/10 01:16:18;;;;;;;9.57;6.38;;;;;;;21.52;53.92;101305.53;5026783;28;20084;-81
2023/06/10 01:18:44;;;;;;;8.60;6.88;;;;;;;21.46;54.21;101298.09;5028325;28;20026;-80
2023/06/10 01:21:13;;;;;;;9.82;6.57;;;;;;;21.32;53.97;101287.03;5026497;28;20050;-81
2023/06/10 01:23:39;;;;;;;9.88;6.88;;;;;;;21.36;54.79;101312.66;5026306;28;21019;-81
2023/06/10 01:26:10;;;;;;;7.40;6.75;;;;;;;21.28;54.72;101304.59;5026806;28;20491;-81
2023/06/10 01:28:49;;;;;;;9.65;7.07;;;;;;;21.23;54.98;101306.97;5025762;28;20202;-80
2023/06/10 01:31:26;;;;;;;8.45;6.20;;;;;;;21.22;54.56;101314.25;5020735;28;20056;-80
2023/06/10 01:33:53;;;;;;;10.60;6.93;;;;;;;21.14;55.57;101321.56;5027237;28;20064;-81
2023/06/10 01:36:20;;;;;;;10.98;7.05;;;;;;;21.09;55.47;101318.53;5026534;28;20538;-81
2023/06/10 01:38:47;;;;;;;9.18;6.72;;;;;;;21.00;55.80;101315.00;5025934;28;20059;-81
2023/06/10 01:41:14;;;;;;;7.90;6.60;;;;;;;20.95;55.79;101312.00;5030866;28;20096;-81
2023/06/10 01:43:42;;;;;;;8.02;7.22;;;;;;;20.88;55.85;101309.16;5044054;28;20026;-80
2023/06/10 01:46:07;;;;;;;10.30;7.47;;;;;;;20.83;56.23;101316.94;5047109;28;20093;-80
2023/06/10 01:48:33;;;;;;;10.35;7.28;;;;;;;20.76;56.37;101305.16;5028193;28;20578;-81
2023/06/10 01:50:58;;;;;;;8.88;7.47;;;;;;;20.70;56.18;101314.81;5032424;28;20026;-80
2023/06/10 01:53:24;;;;;;;10.15;8.00;;;;;;;20.60;56.24;101306.00;5038218;28;20370;-80
2023/06/10 01:55:49;;;;;;;8.23;7.28;;;;;;;20.55;56.30;101319.16;5034599;28;20030;-81
2023/06/10 01:58:15;;;;;;;10.00;7.63;;;;;;;20.50;56.82;101319.69;5034566;28;20025;-80
2023/06/10 02:00:40;;;;;;;11.20;8.30;;;;;;;20.40;57.01;101308.22;5033035;28;20467;-80
2023/06/10 02:03:05;;;;;;;8.93;7.40;;;;;;;20.36;56.86;101312.28;5032065;28;20037;-80
2023/06/10 02:05:31;;;;;;;9.48;7.60;;;;;;;20.29;57.43;101309.44;5033465;28;20072;-81
2023/06/10 02:07:56;;;;;;;8.82;7.75;;;;;;;20.25;57.38;101310.78;5034376;28;20093;-81
2023/06/10 02:10:21;;;;;;;9.23;7.78;;;;;;;20.16;57.82;101309.94;5029739;28;20183;-80
2023/06/10 02:12:47;;;;;;;11.48;8.50;;;;;;;20.20;57.51;101322.09;5029553;28;20029;-80
2023/06/10 02:15:12;;;;;;;8.80;7.90;;;;;;;20.14;57.43;101322.75;5039348;28;20392;-80
2023/06/10 02:17:37;;;;;;;8.98;7.75;;;;;;;20.11;57.93;101325.78;5034451;28;20371;-80
2023/06/10 02:20:06;;;;;;;9.45;7.95;;;;;;;20.04;58.01;101319.41;5029744;28;20037;-80
2023/06/10 02:22:32;;;;;;;9.15;7.93;;;;;;;20.01;58.15;101328.66;5031658;28;20392;-80
2023/06/10 02:24:58;;;;;;;8.57;7.50;;;;;;;19.97;58.21;101324.63;5040758;28;20029;-80
2023/06/10 02:27:23;;;;;;;9.05;7.40;;;;;;;19.91;58.75;101320.72;5039837;28;20030;-80
2023/06/10 02:29:48;;;;;;;8.90;8.00;;;;;;;19.88;59.14;101329.13;5040282;28;20038;-79
2023/06/10 02:32:13;;;;;;;11.43;8.00;;;;;;;19.87;59.07;101326.63;5029751;28;20044;-80
2023/06/10 02:34:39;;;;;;;14.93;8.88;;;;;;;19.85;58.95;101332.19;5032297;28;20279;-79
2023/06/10 02:37:04;;;;;;;9.07;8.10;;;;;;;19.82;59.29;101335.22;5029971;28;20514;-79
2023/06/10 02:39:29;;;;;;;10.07;8.43;;;;;;;19.77;59.55;101332.19;5030471;28;20280;-80
2023/06/10 02:41:55;;;;;;;13.00;9.68;;;;;;;19.72;60.06;101329.09;5026510;28;20472;-80
2023/06/10 02:44:20;;;;;;;9.70;8.70;;;;;;;19.67;59.87;101324.22;5031245;28;20472;-81
2023/06/10 02:46:45;;;;;;;11.60;9.27;;;;;;;19.68;59.68;101328.56;5029914;28;20384;-81
2023/06/10 02:49:12;;;;;;;11.00;9.90;;;;;;;19.58;60.60;101327.88;5034000;28;20372;-81
2023/06/10 02:51:37;;;;;;;10.13;8.45;;;;;;;19.53;61.33;101332.94;5030477;28;20368;-80
2023/06/10 02:54:03;;;;;;;11.15;9.43;;;;;;;19.51;61.09;101329.56;5027943;28;20047;-80
2023/06/10 02:56:28;;;;;;;11.18;9.07;;;;;;;19.47;61.27;101330.88;5030804;28;20033;-81
2023/06/10 02:58:54;;;;;;;10.30;9.20;;;;;;;19.45;61.41;101330.22;5033490;28;20064;-80
2023/06/10 03:01:19;;;;;;;10.98;9.35;;;;;;;19.37;61.44;101326.50;5027778;28;20064;-80
2023/06/10 03:03:46;;;;;;;13.60;9.68;;;;;;;19.34;61.98;101329.50;5034805;28;20029;-80
2023/06/10 03:06:12;;;;;;;15.50;9.25;;;;;;;19.31;62.15;101327.13;5035835;28;20108;-80
2023/06/10 03:08:38;;;;;;;15.80;9.07;;;;;;;19.27;62.32;101328.47;5034338;28;20096;-80
2023/06/10 03:11:03;;;;;;;10.77;9.18;;;;;;;19.26;62.44;101342.09;5027996;28;20121;-80
2023/06/10 03:13:29;;;;;;;10.63;9.20;;;;;;;19.20;62.55;101332.81;5031066;28;20035;-80
2023/06/10 03:15:54;;;;;;;11.38;9.60;;;;;;;19.18;62.59;101329.44;5027830;28;20033;-80
2023/06/10 03:18:20;;;;;;;15.18;10.02;;;;;;;19.16;62.99;101343.06;5033449;28;20361;-80
2023/06/10 03:20:45;;;;;;;10.20;9.15;;;;;;;19.11;63.42;101334.63;5034613;28;20049;-80
2023/06/10 03:23:11;;;;;;;11.30;9.30;;;;;;;19.08;63.34;101334.94;5030478;28;20041;-80
2023/06/10 03:25:36;;;;;;;11.13;9.40;;;;;;;19.06;63.69;101331.59;5032805;28;20036;-80
2023/06/10 03:28:02;;;;;;;10.50;9.48;;;;;;;19.05;63.63;101337.97;5035073;28;20048;-80
2023/06/10 03:30:28;;;;;;;10.57;9.57;;;;;;;18.98;64.45;101345.00;5030865;28;20041;-80
2023/06/10 03:32:53;;;;;;;15.07;9.75;;;;;;;18.96;64.72;101344.31;5030280;28;20092;-80
2023/06/10 03:35:19;;;;;;;11.38;9.45;;;;;;;18.92;64.99;101346.50;5032805;28;20071;-80
2023/06/10 03:37:44;;;;;;;13.45;9.98;;;;;;;18.88;65.00;101349.66;5026561;28;20017;-81
2023/06/10 03:40:10;;;;;;;11.18;10.00;;;;;;;18.80;65.18;101345.03;5041304;28;20471;-80
2023/06/10 03:42:35;;;;;;;13.60;10.88;;;;;;;18.79;65.78;101352.28;5034493;28;20041;-80
2023/06/10 03:45:01;;;;;;;12.38;11.00;;;;;;;18.80;65.91;101355.81;5027319;28;20056;-80
2023/06/10 03:47:27;;;;;;;11.05;9.85;;;;;;;18.78;65.78;101355.97;5031401;28;20026;-80
2023/06/10 03:49:52;;;;;;;14.10;10.07;;;;;;;18.79;65.79;101349.59;5033949;28;20029;-80
2023/06/10 03:52:18;;;;;;;11.80;10.27;;;;;;;18.76;66.56;101347.22;5034793;28;20475;-80
2023/06/10 03:54:43;;;;;;;13.90;10.68;;;;;;;18.75;66.56;101355.44;5031028;28;20025;-81
2023/06/10 03:57:08;;;;;;;11.55;10.40;;;;;;;18.74;66.41;101356.47;5049772;28;20029;-80
2023/06/10 03:59:34;;;;;;;13.43;10.70;;;;;;;18.69;66.81;101351.53;5040711;28;20041;-80
2023/06/10 04:02:00;;;;;;;12.93;10.32;;;;;;;18.73;66.72;101352.06;5038266;28;20296;-80
2023/06/10 04:04:25;;;;;;;13.60;11.73;;;;;;;18.70;67.01;101358.59;5043893;28;20438;-81
2023/06/10 04:06:51;;;;;;;13.40;10.75;;;;;;;18.72;67.09;101361.13;5040968;28;20025;-81
2023/06/10 04:09:16;;;;;;;13.40;11.05;;;;;;;18.66;67.18;101351.84;5041195;28;20034;-80
2023/06/10 04:11:42;;;;;;;12.35;11.07;;;;;;;18.62;67.59;101358.56;5040003;28;20029;-80
2023/06/10 04:14:08;;;;;;;15.13;10.88;;;;;;;18.62;68.00;101361.25;5033782;28;20026;-80
2023/06/10 04:16:33;;;;;;;15.57;11.68;;;;;;;18.60;68.00;101361.41;5037400;28;20155;-81
2023/06/10 04:19:00;;;;;;;13.02;11.70;;;;;;;18.57;68.57;101360.88;5030969;28;20456;-80
2023/06/10 04:21:26;;;;;;;15.95;11.75;;;;;;;18.57;67.97;101364.41;5036556;28;20049;-80
2023/06/10 04:23:51;;;;;;;12.45;11.10;;;;;;;18.56;68.18;101364.56;5018903;28;20033;-80
2023/06/10 04:26:16;;;;;;;13.65;11.00;;;;;;;18.56;68.58;101361.88;5033715;28;20432;-80
2023/06/10 04:28:43;;;;;;;14.52;11.13;;;;;;;18.56;68.67;101370.78;5034627;28;20551;-79
2023/06/10 04:31:08;;;;;;;16.88;11.80;;;;;;;18.58;68.54;101373.31;5031577;28;20029;-80
2023/06/10 04:33:34;;;;;;;13.07;10.90;;;;;;;18.57;68.96;101371.63;5029867;28;20442;-80
2023/06/10 04:35:59;;;;;;;17.77;11.52;;;;;;;18.61;68.34;101376.53;5037155;28;20026;-80
2023/06/10 04:38:24;;;;;;;13.50;12.10;;;;;;;18.63;68.69;101379.06;5029153;28;20021;-80
2023/06/10 04:40:50;;;;;;;15.70;12.20;;;;;;;18.64;68.70;101375.41;5034635;28;20364;-80
2023/06/10 04:43:16;;;;;;;15.10;11.50;;;;;;;18.62;68.16;101364.78;5034956;28;20132;-80
2023/06/10 04:45:44;;;;;;;13.02;11.73;;;;;;;18.66;68.24;101366.16;5032247;28;20036;-80
2023/06/10 04:48:10;;;;;;;13.90;11.70;;;;;;;18.79;67.90;101378.34;5029781;28;20033;-80
2023/06/10 04:50:36;;;;;;;12.75;11.20;;;;;;;18.84;68.34;101373.38;5027110;28;20114;-81
2023/06/10 04:53:01;;;;;;;12.43;11.13;;;;;;;18.91;67.67;101377.09;5029045;28;20029;-80
2023/06/10 04:55:26;;;;;;;14.38;11.00;;;;;;;18.96;67.64;101384.72;5030822;28;20033;-81
2023/06/10 04:57:52;;;;;;;12.30;10.37;;;;;;;19.01;67.70;101369.75;5032868;28;20036;-81
2023/06/10 05:00:18;;;;;;;15.25;11.32;;;;;;;19.08;66.91;101382.59;5034191;28;20750;-80
2023/06/10 05:02:44;;;;;;;15.55;11.48;;;;;;;19.17;66.70;101379.78;5032562;28;20034;-80
2023/06/10 05:05:10;;;;;;;14.13;11.82;;;;;;;19.23;66.60;101386.34;5025027;28;20022;-80
2023/06/10 05:07:35;;;;;;;12.02;10.40;;;;;;;19.39;66.36;101380.22;5026195;28;20029;-80
2023/06/10 05:10:01;;;;;;;13.02;10.65;;;;;;;19.46;65.82;101383.09;5038516;28;20101;-80
2023/06/10 05:12:26;;;;;;;12.55;10.63;;;;;;;19.53;65.31;101382.25;5052037;28;20041;-80
2023/06/10 05:14:52;;;;;;;13.27;9.90;;;;;;;19.61;64.88;101381.44;5042433;28;20397;-80
2023/06/10 05:17:17;;;;;;;13.17;10.33;;;;;;;19.69;65.00;101386.03;5033632;28;20119;-80
2023/06/10 05:19:43;;;;;;;16.38;10.68;;;;;;;19.72;64.34;101383.84;5035342;28;20623;-80
2023/06/10 05:22:09;;;;;;;12.85;10.88;;;;;;;19.74;64.73;101389.06;5040043;28;20499;-80
2023/06/10 05:24:34;;;;;;;12.45;11.05;;;;;;;19.72;64.37;101383.00;5037557;28;20121;-81
2023/06/10 05:26:59;;;;;;;11.97;10.00;;;;;;;19.80;64.01;101382.19;5041626;28;20029;-82
2023/06/10 05:29:25;;;;;;;11.88;10.68;;;;;;;19.79;64.49;101367.88;5040365;28;20276;-81
2023/06/10 05:31:51;;;;;;;15.32;10.68;;;;;;;19.95;63.78;101383.22;5036209;28;20029;-81
2023/06/10 05:34:16;;;;;;;15.63;10.75;;;;;;;20.06;63.25;101379.38;5034320;28;20097;-81
2023/06/10 05:36:41;;;;;;;12.87;10.30;;;;;;;20.25;63.28;101380.91;5034200;28;20021;-81
2023/06/10 05:39:07;;;;;;;12.50;10.65;;;;;;;20.46;62.37;101383.94;5031702;28;20295;-79
2023/06/10 05:41:32;;;;;;;16.45;10.98;;;;;;;20.67;61.88;101375.34;5027347;28;20494;-81
2023/06/10 05:43:57;;;;;;;15.27;10.25;;;;;;;20.81;60.70;101384.59;5037347;28;20036;-80
2023/06/10 05:46:25;;;;;;;17.00;11.25;;;;;;;20.93;59.86;101385.06;5037810;28;20017;-80
2023/06/10 05:48:50;;;;;;;12.82;10.18;;;;;;;21.09;59.48;101384.19;5027421;28;20391;-80
2023/06/10 05:51:15;;;;;;;12.40;10.07;;;;;;;21.23;59.17;101380.78;5030756;28;20030;-80
2023/06/10 05:53:41;;;;;;;12.32;9.70;;;;;;;21.37;58.70;101384.59;5035310;28;20026;-80
2023/06/10 05:56:09;;;;;;;13.45;10.30;;;;;;;21.54;58.47;101388.09;5036774;28;20025;-80
2023/06/10 05:58:37;;;;;;;15.23;10.48;;;;;;;21.65;57.46;101396.81;5033244;28;20026;-81
2023/06/10 06:01:02;;;;;;;11.37;10.03;;;;;;;21.74;56.52;101379.56;5037921;28;20037;-81
2023/06/10 06:03:28;;;;;;;12.75;9.98;;;;;;;21.90;56.72;101390.28;5035288;28;20043;-81
2023/06/10 06:05:53;;;;;;;10.93;8.85;;;;;;;22.14;56.48;101397.34;5035345;28;20506;-82
2023/06/10 06:08:19;;;;;;;13.32;10.00;;;;;;;22.17;55.53;101379.94;5032861;28;20472;-81
2023/06/10 06:10:45;;;;;;;12.15;9.52;;;;;;;22.39;54.81;101399.06;5033837;28;20096;-81
2023/06/10 06:13:10;;;;;;;11.88;9.48;;;;;;;22.54;54.73;101399.94;5037984;28;20025;-80
2023/06/10 06:15:35;;;;;;;15.63;9.93;;;;;;;22.75;54.06;101384.84;5030616;28;20376;-80
2023/06/10 06:18:01;;;;;;;16.63;9.73;;;;;;;22.88;53.52;101391.34;5030396;28;20022;-80
2023/06/10 06:20:26;;;;;;;13.07;9.90;;;;;;;22.97;52.86;101392.06;5031177;28;20280;-80
2023/06/10 06:22:51;;;;;;;12.13;9.65;;;;;;;23.14;52.64;101389.22;5037693;28;20056;-80
2023/06/10 06:25:17;;;;;;;18.63;10.20;;;;;;;23.20;52.36;101383.03;5037583;28;20026;-81
2023/06/10 06:27:42;;;;;;;13.77;9.65;;;;;;;23.28;51.48;101380.22;5035164;28;20022;-81
2023/06/10 06:30:08;;;;;;;14.93;9.43;;;;;;;23.38;51.29;101391.63;5031385;28;20057;-81
2023/06/10 06:32:33;;;;;;;14.60;9.60;;;;;;;23.62;50.93;101393.16;5037472;28;20280;-81
2023/06/10 06:34:59;;;;;;;15.75;9.77;;;;;;;23.64;50.47;101392.97;5035517;28;20122;-81
2023/06/10 06:37:25;;;;;;;13.07;8.93;;;;;;;23.71;50.46;101393.06;5029031;28;20083;-81
2023/06/10 06:39:53;;;;;;;14.82;9.27;;;;;;;23.86;50.02;101388.44;5033449;28;20429;-81
2023/06/10 06:42:20;;;;;;;13.40;8.88;;;;;;;24.04;49.62;101398.03;5034892;28;20479;-81
2023/06/10 06:44:46;;;;;;;13.48;8.90;;;;;;;24.22;48.52;101395.72;5031381;28;20029;-81
2023/06/10 06:47:11;;;;;;;13.55;9.18;;;;;;;24.23;48.41;101404.69;5032917;28;20033;-81
2023/06/10 06:49:37;;;;;;;13.20;8.80;;;;;;;24.35;48.29;101393.09;5033654;28;20404;-81
2023/06/10 06:52:03;;;;;;;13.07;8.48;;;;;;;24.60;48.08;101400.88;5049027;28;20029;-81
2023/06/10 06:54:29;;;;;;;12.95;8.63;;;;;;;24.63;46.93;101400.47;5033486;28;20113;-82
2023/06/10 06:56:54;;;;;;;12.40;8.00;;;;;;;24.81;46.48;101399.13;5037682;28;20057;-81
2023/06/10 06:59:19;;;;;;;13.50;7.72;;;;;;;25.06;45.80;101408.50;5044342;28;20109;-82
2023/06/10 07:01:46;;;;;;;12.48;7.90;;;;;;;25.27;46.04;101404.03;5028723;28;20033;-80
2023/06/10 07:04:11;;;;;;;9.18;8.27;;;;;;;25.44;44.79;101401.81;5031154;28;20033;-81
2023/06/10 07:06:37;;;;;;;10.43;8.00;;;;;;;25.46;44.75;101391.56;5040516;28;20387;-80
2023/06/10 07:09:03;;;;;;;12.80;7.63;;;;;;;25.76;44.47;101408.41;5032800;28;20034;-80
2023/06/10 07:11:29;;;;;;;12.82;7.85;;;;;;;25.96;43.66;101400.34;5034744;28;20025;-81
2023/06/10 07:13:54;;;;;;;10.93;6.95;;;;;;;26.14;43.15;101402.47;5039730;28;20079;-80
2023/06/10 07:16:21;;;;;;;10.77;7.60;;;;;;;26.47;42.72;101418.00;5032214;28;20029;-81
2023/06/10 07:18:46;;;;;;;15.48;7.20;;;;;;;26.66;42.49;101408.16;5039383;28;20436;-81
2023/06/10 07:21:11;;;;;;;9.50;6.70;;;;;;;26.92;41.72;101409.19;5033319;28;20060;-81
2023/06/10 07:23:37;;;;;;;10.60;7.15;;;;;;;26.99;40.51;101412.72;5036331;28;20288;-81
2023/06/10 07:26:02;;;;;;;10.48;7.50;;;;;;;27.17;40.40;101411.22;5044193;28;20051;-80
2023/06/10 07:28:28;;;;;;;12.75;6.88;;;;;;;27.34;39.72;101412.44;5037711;28;20147;-80
2023/06/10 07:30:53;;;;;;;10.07;6.90;;;;;;;27.40;39.98;101406.13;5044770;28;20108;-80
2023/06/10 07:33:18;;;;;;;13.43;7.05;;;;;;;27.39;39.49;101420.00;5037326;28;20056;-80
2023/06/10 07:35:44;;;;;;;9.23;6.80;;;;;;;27.54;39.61;101404.19;5047119;28;20029;-81
2023/06/10 07:38:09;;;;;;;12.27;7.15;;;;;;;27.71;39.13;101409.97;5032713;28;20319;-81
2023/06/10 07:40:34;;;;;;;10.15;6.47;;;;;;;28.08;39.33;101412.09;5037108;28;20353;-80
2023/06/10 07:43:00;;;;;;;11.15;6.43;;;;;;;28.28;38.12;101412.81;5035344;28;20030;-80
2023/06/10 07:45:32;;;;;;;7.40;6.60;;;;;;;28.56;38.18;101414.28;5044341;28;20030;-80
2023/06/10 07:47:58;;;;;;;8.88;6.15;;;;;;;28.78;36.81;101412.81;5044896;28;20026;-80
2023/06/10 07:50:23;;;;;;;14.20;6.90;;;;;;;28.88;36.61;101408.72;5034883;28;20052;-80
2023/06/10 07:52:48;;;;;;;12.90;6.47;;;;;;;28.98;36.36;101420.81;5045924;28;20288;-80
2023/06/10 07:55:13;;;;;;;12.83;7.37;;;;;;;29.00;35.61;101408.84;5042690;28;20064;-81
2023/06/10 07:57:39;;;;;;;13.65;6.53;;;;;;;29.21;35.66;101424.84;5044261;28;20025;-81
2023/06/10 08:00:05;;;;;;;10.18;5.85;;;;;;;29.39;35.69;101417.66;5034425;28;20021;-81
2023/06/10 08:02:31;;;;;;;8.90;6.05;;;;;;;29.67;34.91;101420.66;5032754;28;20013;-81
2023/06/10 08:04:56;;;;;;;8.25;5.85;;;;;;;29.72;33.02;101411.75;5026798;28;20037;-82
2023/06/10 08:07:22;;;;;;;9.53;5.63;;;;;;;29.99;33.08;101406.75;5031481;28;20026;-82
2023/06/10 08:09:47;;;;;;;11.25;5.32;;;;;;;30.03;32.56;101415.38;5030762;28;20296;-82
2023/06/10 08:12:12;;;;;;;9.88;5.45;;;;;;;30.22;33.02;101413.38;5021118;28;20467;-82
2023/06/10 08:14:38;;;;;;;6.63;5.70;;;;;;;30.35;32.35;101420.56;5033956;28;20026;-82
2023/06/10 08:17:05;;;;;;;8.02;5.05;;;;;;;30.52;32.62;101415.25;5035230;28;20361;-82
2023/06/10 08:19:31;;;;;;;10.93;5.43;;;;;;;30.56;31.12;101414.53;5030282;28;20029;-81
2023/06/10 08:21:56;;;;;;;9.60;5.57;;;;;;;30.63;31.73;101408.94;5028910;28;20456;-82
2023/06/10 08:24:21;;;;;;;9.23;5.80;;;;;;;30.80;31.37;101415.34;5029964;28;20026;-82
2023/06/10 08:26:47;;;;;;;5.30;4.80;;;;;;;30.88;30.81;101413.34;5034075;28;21132;-83
2023/06/10 08:29:13;;;;;;;7.53;4.88;;;;;;;30.94;31.24;101410.50;5036525;28;20285;-82
2023/06/10 08:31:42;;;;;;;7.70;5.10;;;;;;;31.08;31.27;101415.75;5029703;28;20120;-83
2023/06/10 08:34:08;;;;;;;6.20;5.47;;;;;;;31.19;30.02;101409.38;5024674;28;20418;-83
2023/06/10 08:36:33;;;;;;;5.32;4.82;;;;;;;31.52;30.51;101408.72;5034895;28;20013;-83
2023/06/10 08:38:58;;;;;;;8.13;5.27;;;;;;;31.52;29.35;101413.38;5041652;28;20018;-83
2023/06/10 08:41:28;;;;;;;7.70;4.97;;;;;;;31.90;29.50;101418.22;5048241;28;20037;-83
2023/06/10 08:44:03;;;;;;;9.57;6.38;;;;;;;31.92;29.59;101409.75;5039516;28;20025;-82
2023/06/10 08:46:31;;;;;;;10.05;5.38;;;;;;;32.00;28.95;101414.00;5030121;28;20034;-83
2023/06/10 08:49:01;;;;;;;6.65;4.97;;;;;;;32.04;29.55;101412.44;5032687;28;20378;-83
2023/06/10 08:51:27;;;;;;;7.32;5.13;;;;;;;32.34;29.03;101406.63;5037622;28;20037;-83
2023/06/10 08:54:15;;;;;;;7.38;4.80;;;;;;;32.72;29.94;101413.31;5036854;28;20022;-83
2023/06/10 08:56:42;;;;;;;7.20;4.60;;;;;;;32.81;28.67;101417.31;5042829;28;20040;-82
2023/06/10 08:59:08;;;;;;;7.60;4.75;;;;;;;32.83;28.26;101409.63;5043845;28;20033;-82
2023/06/10 09:01:34;;;;;;;9.48;5.18;;;;;;;32.97;27.79;101407.34;5049846;28;20112;-83
2023/06/10 09:04:00;;;;;;;8.15;5.15;;;;;;;32.82;27.88;101410.72;5049615;28;20033;-82
2023/06/10 09:06:26;;;;;;;6.45;5.25;;;;;;;32.93;27.56;101399.88;5032803;28;20112;-83
2023/06/10 09:08:52;;;;;;;7.38;4.72;;;;;;;32.99;27.49;101401.59;5042406;28;20120;-82
2023/06/10 09:11:17;;;;;;;7.25;4.60;;;;;;;32.92;27.03;101401.78;5042377;28;20116;-83
2023/06/10 09:13:43;;;;;;;5.43;4.57;;;;;;;33.07;27.13;101401.16;5042228;28;20092;-83
2023/06/10 09:16:09;;;;;;;7.80;4.90;;;;;;;33.08;26.87;101404.75;5038999;28;20098;-83
2023/06/10 09:18:34;;;;;;;5.88;5.22;;;;;;;33.25;27.05;101402.78;5032625;28;20355;-83
2023/06/10 09:21:00;;;;;;;7.55;4.80;;;;;;;33.49;26.83;101397.00;5041477;28;20077;-84
2023/06/10 09:23:25;;;;;;;7.27;4.73;;;;;;;33.28;26.06;101402.28;5038538;28;20029;-82
2023/06/10 09:25:58;;;;;;;10.05;4.72;;;;;;;33.53;27.16;101398.16;5041879;28;20727;-82
2023/06/10 09:28:23;;;;;;;8.27;4.82;;;;;;;33.67;26.00;101395.81;5040573;28;20033;-81
2023/06/10 09:30:49;;;;;;;7.90;4.78;;;;;;;33.79;25.65;101404.81;5038828;28;20032;-82
2023/06/10 09:33:15;;;;;;;8.10;4.30;;;;;;;34.03;25.04;101401.72;5040962;28;20029;-81
2023/06/10 09:35:49;;;;;;;7.68;4.65;;;;;;;33.96;26.05;101406.59;5039117;28;20272;-83
2023/06/10 09:38:20;;;;;;;8.43;4.90;;;;;;;33.95;26.15;101397.50;5029410;28;20181;-81
2023/06/10 09:40:50;;;;;;;8.48;4.80;;;;;;;34.35;26.10;101403.69;5037863;28;20136;-82
2023/06/10 09:43:15;;;;;;;5.72;4.40;;;;;;;34.59;26.45;101401.34;5024264;28;20037;-82
2023/06/10 09:45:40;;;;;;;6.60;4.50;;;;;;;34.59;25.24;101396.69;5038016;28;20025;-82
2023/06/10 09:48:05;;;;;;;6.57;4.70;;;;;;;34.70;25.61;101400.31;5040336;28;20037;-82
2023/06/10 09:50:34;;;;;;;7.37;4.50;;;;;;;35.01;25.87;101395.84;5040251;28;20330;-82
2023/06/10 09:53:02;;;;;;;5.65;4.15;;;;;;;35.14;25.31;101397.28;5039143;28;20084;-82
2023/06/10 09:55:27;;;;;;;10.13;4.70;;;;;;;35.07;24.24;101399.44;5036782;28;20318;-82
2023/06/10 09:57:54;;;;;;;7.47;4.10;;;;;;;35.00;25.10;101387.81;5041491;28;20032;-81
2023/06/10 10:00:21;;;;;;;7.43;4.65;;;;;;;35.07;24.39;101388.41;5038669;28;20045;-82
2023/06/10 10:02:49;;;;;;;6.05;4.43;;;;;;;35.20;24.27;101389.84;5040835;28;20033;-82
2023/06/10 10:05:16;;;;;;;9.73;4.80;;;;;;;35.17;24.39;101385.72;5039892;28;20092;-82
2023/06/10 10:07:42;;;;;;;6.38;4.72;;;;;;;35.21;24.16;101384.06;5039544;28;20104;-82
2023/06/10 10:10:09;;;;;;;6.10;4.60;;;;;;;35.10;23.83;101387.88;5039423;28;20052;-82
2023/06/10 10:12:36;;;;;;;6.43;4.60;;;;;;;35.29;23.40;101379.13;5030748;28;20037;-82
2023/06/10 10:15:02;;;;;;;6.07;4.53;;;;;;;35.34;22.95;101382.75;5034974;28;20029;-82
2023/06/10 10:17:29;;;;;;;9.98;4.28;;;;;;;35.29;23.25;101379.97;5035950;28;20029;-82
2023/06/10 10:20:00;;;;;;;5.50;4.20;;;;;;;35.63;23.29;101371.22;5035741;28;20032;-81
2023/06/10 10:22:29;;;;;;;7.32;4.15;;;;;;;35.70;23.58;101371.75;5032511;28;20530;-82
2023/06/10 10:25:02;;;;;;;7.38;4.47;;;;;;;35.86;23.29;101369.91;5036229;28;20375;-81
2023/06/10 10:27:33;;;;;;;6.85;4.22;;;;;;;35.90;23.09;101372.94;5036328;28;20052;-82
2023/06/10 10:29:59;;;;;;;10.15;4.47;;;;;;;36.12;23.68;101364.34;5036562;28;20383;-81
2023/06/10 10:32:32;;;;;;;7.28;4.38;;;;;;;36.15;23.58;101371.28;5033563;28;20030;-82
2023/06/10 10:35:04;;;;;;;9.63;4.75;;;;;;;36.23;22.59;101363.28;5032076;28;20368;-82
2023/06/10 10:37:30;;;;;;;5.90;4.38;;;;;;;36.44;22.04;101366.84;5035392;28;20056;-82
2023/06/10 10:39:56;;;;;;;6.72;4.50;;;;;;;36.46;22.10;101367.41;5036572;28;20037;-81
2023/06/10 10:42:22;;;;;;;7.05;4.30;;;;;;;36.46;21.81;101361.03;5032763;28;20732;-81
2023/06/10 10:44:49;;;;;;;7.00;4.63;;;;;;;36.40;22.91;101368.50;5025736;28;20072;-82
2023/06/10 10:47:16;;;;;;;7.28;4.50;;;;;;;36.35;22.72;101362.97;5034880;28;20030;-82
2023/06/10 10:49:43;;;;;;;8.32;4.05;;;;;;;36.53;22.52;101364.34;5032878;28;20024;-81
2023/06/10 10:52:11;;;;;;;5.90;4.20;;;;;;;36.44;21.79;101361.31;5028670;28;20033;-82
2023/06/10 10:54:39;;;;;;;7.47;4.25;;;;;;;36.68;23.12;101355.97;5033688;28;20091;-81
2023/06/10 10:57:23;;;;;;;;;;;;;;;37.35;23.40;101360.47;5036103;28;20082;-82
2023/06/10 10:59:48;;;;;;;6.55;4.10;;;;;;;36.87;21.81;101357.34;5033207;28;19913;-82
2023/06/10 11:02:34;;;;;;;7.37;4.37;;;;;;;36.74;22.33;101350.47;5028486;28;20098;-83
2023/06/10 11:05:00;;;;;;;11.40;4.25;;;;;;;36.92;21.67;101355.38;5034254;28;20120;-81
2023/06/10 11:07:25;;;;;;;11.25;4.40;;;;;;;36.92;21.83;101349.84;5034840;28;20037;-82
2023/06/10 11:09:59;;;;;;;6.75;4.65;;;;;;;36.81;22.23;101351.00;5035463;28;20036;-82
2023/06/10 11:12:25;;;;;;;7.15;4.30;;;;;;;36.77;21.00;101352.66;5034382;28;20057;-82
2023/06/10 11:14:57;;;;;;;9.25;4.70;;;;;;;36.75;22.00;101346.59;5026151;28;20529;-81